sensor_id;sensor_type;location;lat;lon;timestamp;pressure;altitude;pressure_sealevel;temperature;humidity
9439;BME280;5176;42.622;25.386;2023-05-24T00:00:21;96956.72;;;14.79;100.00
9439;BME280;5176;42.622;25.386;2023-05-24T00:02:48;96953.47;;;14.66;100.00
9439;BME280;5176;42.622;25.386;2023-05-24T00:05:15;96952.34;;;14.68;100.00
9439;BME280;5176;42.622;25.386;2023-05-24T00:07:43;96953.81;;;14.82;100.00
9439;BME280;5176;42.622;25.386;2023-05-24T00:10:11;96953.28;;;14.88;100.00
9439;BME280;5176;42.622;25.386;2023-05-24T00:12:38;96943.63;;;14.98;100.00
9439;BME280;5176;42.622;25.386;2023-05-24T00:15:08;96939.19;;;14.99;100.00
9439;BME280;5176;42.622;25.386;2023-05-24T00:17:35;96933.50;;;15.04;100.00
9439;BME280;5176;42.622;25.386;2023-05-24T00:20:07;96933.38;;;15.05;100.00
9439;BME280;5176;42.622;25.386;2023-05-24T00:22:36;96935.59;;;15.10;100.00
9439;BME280;5176;42.622;25.386;2023-05-24T00:25:03;96932.97;;;15.10;100.00
9439;BME280;5176;42.622;25.386;2023-05-24T00:27:31;96933.41;;;15.15;100.00
9439;BME280;5176;42.622;25.386;2023-05-24T00:29:58;96936.75;;;15.17;100.00
9439;BME280;5176;42.622;25.386;2023-05-24T00:32:27;96935.34;;;15.13;100.00
9439;BME280;5176;42.622;25.386;2023-05-24T00:34:54;96935.06;;;15.06;99.27
9439;BME280;5176;42.622;25.386;2023-05-24T00:37:21;96931.81;;;15.03;100.00
9439;BME280;5176;42.622;25.386;2023-05-24T00:39:49;96934.53;;;14.61;100.00
9439;BME280;5176;42.622;25.386;2023-05-24T00:42:16;96934.53;;;14.61;100.00
9439;BME280;5176;42.622;25.386;2023-05-24T00:44:43;96933.06;;;14.47;100.00
9439;BME280;5176;42.622;25.386;2023-05-24T00:47:10;96931.28;;;14.48;100.00
9439;BME280;5176;42.622;25.386;2023-05-24T00:49:39;96927.28;;;14.53;100.00
9439;BME280;5176;42.622;25.386;2023-05-24T00:52:07;96934.41;;;14.62;100.00
9439;BME280;5176;42.622;25.386;2023-05-24T00:54:34;96937.22;;;14.70;100.00
9439;BME280;5176;42.622;25.386;2023-05-24T00:57:02;96933.06;;;14.68;100.00
9439;BME280;5176;42.622;25.386;2023-05-24T00:59:29;96938.34;;;14.68;100.00
9439;BME280;5176;42.622;25.386;2023-05-24T01:01:56;96940.59;;;14.73;100.00
9439;BME280;5176;42.622;25.386;2023-05-24T01:04:24;96936.69;;;14.77;100.00
9439;BME280;5176;42.622;25.386;2023-05-24T01:07:05;96937.28;;;14.80;100.00
9439;BME280;5176;42.622;25.386;2023-05-24T01:09:46;96933.41;;;14.84;100.00
9439;BME280;5176;42.622;25.386;2023-05-24T01:12:22;96929.75;;;14.76;100.00
9439;BME280;5176;42.622;25.386;2023-05-24T01:14:57;96927.97;;;14.76;100.00
9439;BME280;5176;42.622;25.386;2023-05-24T01:17:31;96925.91;;;14.80;100.00
9439;BME280;5176;42.622;25.386;2023-05-24T01:20:02;96933.38;;;14.75;100.00
9439;BME280;5176;42.622;25.386;2023-05-24T01:22:56;96930.59;;;14.76;100.00
9439;BME280;5176;42.622;25.386;2023-05-24T01:25:47;96926.97;;;14.77;100.00
9439;BME280;5176;42.622;25.386;2023-05-24T01:28:17;96926.56;;;14.72;100.00
9439;BME280;5176;42.622;25.386;2023-05-24T01:30:45;96938.38;;;14.78;100.00
9439;BME280;5176;42.622;25.386;2023-05-24T01:33:13;96934.59;;;14.70;100.00
9439;BME280;5176;42.622;25.386;2023-05-24T01:35:41;96936.50;;;14.59;99.92
9439;BME280;5176;42.622;25.386;2023-05-24T01:38:08;96939.66;;;14.53;100.00
9439;BME280;5176;42.622;25.386;2023-05-24T01:40:37;96941.13;;;14.13;100.00
9439;BME280;5176;42.622;25.386;2023-05-24T01:43:13;96945.06;;;14.19;100.00
9439;BME280;5176;42.622;25.386;2023-05-24T01:45:51;96939.53;;;14.22;100.00
9439;BME280;5176;42.622;25.386;2023-05-24T01:48:36;96940.53;;;14.10;100.00
9439;BME280;5176;42.622;25.386;2023-05-24T01:51:06;96936.34;;;13.86;100.00
9439;BME280;5176;42.622;25.386;2023-05-24T01:53:40;96938.47;;;13.93;100.00
9439;BME280;5176;42.622;25.386;2023-05-24T01:56:09;96934.84;;;13.73;100.00
9439;BME280;5176;42.622;25.386;2023-05-24T01:58:38;96928.47;;;13.75;100.00
9439;BME280;5176;42.622;25.386;2023-05-24T02:01:08;96930.25;;;13.75;100.00
9439;BME280;5176;42.622;25.386;2023-05-24T02:03:36;96920.44;;;13.77;100.00
9439;BME280;5176;42.622;25.386;2023-05-24T02:06:04;96925.59;;;13.78;100.00
9439;BME280;5176;42.622;25.386;2023-05-24T02:08:31;96932.53;;;13.79;100.00
9439;BME280;5176;42.622;25.386;2023-05-24T02:10:58;96924.13;;;13.85;100.00
9439;BME280;5176;42.622;25.386;2023-05-24T02:13:25;96929.97;;;13.89;100.00
9439;BME280;5176;42.622;25.386;2023-05-24T02:15:52;96929.00;;;13.90;100.00
9439;BME280;5176;42.622;25.386;2023-05-24T02:18:21;96936.34;;;13.86;100.00
9439;BME280;5176;42.622;25.386;2023-05-24T02:20:48;96931.31;;;13.83;100.00
9439;BME280;5176;42.622;25.386;2023-05-24T02:23:15;96939.84;;;13.76;100.00
9439;BME280;5176;42.622;25.386;2023-05-24T02:25:42;96940.66;;;13.76;100.00
9439;BME280;5176;42.622;25.386;2023-05-24T02:28:10;96940.19;;;13.82;100.00
9439;BME280;5176;42.622;25.386;2023-05-24T02:30:37;96941.59;;;13.86;100.00
9439;BME280;5176;42.622;25.386;2023-05-24T02:33:04;96891.41;;;13.56;100.00
9439;BME280;5176;42.622;25.386;2023-05-24T02:35:33;96945.66;;;13.90;100.00
9439;BME280;5176;42.622;25.386;2023-05-24T02:38:00;96940.38;;;13.90;100.00
9439;BME280;5176;42.622;25.386;2023-05-24T02:40:28;96942.56;;;13.85;100.00
9439;BME280;5176;42.622;25.386;2023-05-24T02:42:55;96953.13;;;13.85;100.00
9439;BME280;5176;42.622;25.386;2023-05-24T02:45:23;96948.22;;;13.81;100.00
9439;BME280;5176;42.622;25.386;2023-05-24T02:47:50;96948.22;;;13.81;100.00
9439;BME280;5176;42.622;25.386;2023-05-24T02:50:17;96947.25;;;13.82;100.00
9439;BME280;5176;42.622;25.386;2023-05-24T02:52:45;96947.09;;;13.83;100.00
9439;BME280;5176;42.622;25.386;2023-05-24T02:55:13;96953.47;;;13.81;100.00
9439;BME280;5176;42.622;25.386;2023-05-24T02:57:40;96948.72;;;13.63;100.00
9439;BME280;5176;42.622;25.386;2023-05-24T03:00:08;96964.44;;;13.65;100.00
9439;BME280;5176;42.622;25.386;2023-05-24T03:02:36;96957.28;;;13.45;100.00
9439;BME280;5176;42.622;25.386;2023-05-24T03:05:06;96958.97;;;13.46;100.00
9439;BME280;5176;42.622;25.386;2023-05-24T03:07:33;96958.81;;;13.58;100.00
9439;BME280;5176;42.622;25.386;2023-05-24T03:10:02;96958.44;;;13.63;100.00
9439;BME280;5176;42.622;25.386;2023-05-24T03:12:30;96960.56;;;13.69;100.00
9439;BME280;5176;42.622;25.386;2023-05-24T03:14:57;96954.13;;;13.62;100.00
9439;BME280;5176;42.622;25.386;2023-05-24T03:17:24;96964.53;;;13.63;100.00
9439;BME280;5176;42.622;25.386;2023-05-24T03:19:51;96967.44;;;13.60;100.00
9439;BME280;5176;42.622;25.386;2023-05-24T03:22:19;96966.25;;;13.42;100.00
9439;BME280;5176;42.622;25.386;2023-05-24T03:24:46;96965.91;;;13.47;100.00
9439;BME280;5176;42.622;25.386;2023-05-24T03:27:15;96966.13;;;13.55;100.00
9439;BME280;5176;42.622;25.386;2023-05-24T03:29:42;96957.59;;;13.62;100.00
9439;BME280;5176;42.622;25.386;2023-05-24T03:32:09;96969.22;;;13.71;100.00
9439;BME280;5176;42.622;25.386;2023-05-24T03:34:36;96963.69;;;13.74;100.00
9439;BME280;5176;42.622;25.386;2023-05-24T03:37:04;96971.09;;;13.69;100.00
9439;BME280;5176;42.622;25.386;2023-05-24T03:39:31;96972.34;;;13.54;100.00
9439;BME280;5176;42.622;25.386;2023-05-24T03:41:58;96968.16;;;13.51;100.00
9439;BME280;5176;42.622;25.386;2023-05-24T03:44:27;96966.59;;;13.60;100.00
9439;BME280;5176;42.622;25.386;2023-05-24T03:46:54;96972.56;;;13.62;100.00
9439;BME280;5176;42.622;25.386;2023-05-24T03:49:21;96969.31;;;13.70;100.00
9439;BME280;5176;42.622;25.386;2023-05-24T03:51:49;96968.94;;;13.74;100.00
9439;BME280;5176;42.622;25.386;2023-05-24T03:54:16;96961.03;;;13.74;100.00
9439;BME280;5176;42.622;25.386;2023-05-24T03:56:43;96973.09;;;13.88;100.00
9439;BME280;5176;42.622;25.386;2023-05-24T03:59:11;96981.94;;;13.98;100.00
9439;BME280;5176;42.622;25.386;2023-05-24T04:01:39;96985.16;;;14.02;100.00
9439;BME280;5176;42.622;25.386;2023-05-24T04:04:06;96982.84;;;14.08;100.00
9439;BME280;5176;42.622;25.386;2023-05-24T04:06:34;96985.56;;;14.18;100.00
9439;BME280;5176;42.622;25.386;2023-05-24T04:09:02;96984.81;;;14.27;100.00
9439;BME280;5176;42.622;25.386;2023-05-24T04:11:30;96986.56;;;14.38;100.00
9439;BME280;5176;42.622;25.386;2023-05-24T04:13:58;96997.06;;;14.49;100.00
9439;BME280;5176;42.622;25.386;2023-05-24T04:16:26;96995.88;;;14.53;100.00
9439;BME280;5176;42.622;25.386;2023-05-24T04:18:55;96988.78;;;14.54;100.00
9439;BME280;5176;42.622;25.386;2023-05-24T04:21:23;96991.88;;;14.59;100.00
9439;BME280;5176;42.622;25.386;2023-05-24T04:23:50;96996.22;;;14.69;100.00
9439;BME280;5176;42.622;25.386;2023-05-24T04:26:17;97002.56;;;14.78;100.00
9439;BME280;5176;42.622;25.386;2023-05-24T04:28:45;97003.94;;;14.82;100.00
9439;BME280;5176;42.622;25.386;2023-05-24T04:31:13;97005.53;;;14.85;100.00
9439;BME280;5176;42.622;25.386;2023-05-24T04:33:41;96998.75;;;14.92;100.00
9439;BME280;5176;42.622;25.386;2023-05-24T04:36:10;96994.47;;;15.01;100.00
9439;BME280;5176;42.622;25.386;2023-05-24T04:38:38;96994.78;;;15.07;100.00
9439;BME280;5176;42.622;25.386;2023-05-24T04:41:05;96995.25;;;15.12;100.00
9439;BME280;5176;42.622;25.386;2023-05-24T04:43:33;97007.91;;;15.18;100.00
9439;BME280;5176;42.622;25.386;2023-05-24T04:46:01;97002.44;;;15.10;100.00
9439;BME280;5176;42.622;25.386;2023-05-24T04:48:28;97004.81;;;15.13;100.00
9439;BME280;5176;42.622;25.386;2023-05-24T04:50:56;96995.66;;;15.17;100.00
9439;BME280;5176;42.622;25.386;2023-05-24T04:53:25;96990.16;;;15.30;100.00
9439;BME280;5176;42.622;25.386;2023-05-24T04:55:52;97000.94;;;15.48;100.00
9439;BME280;5176;42.622;25.386;2023-05-24T04:58:20;97005.72;;;15.64;100.00
9439;BME280;5176;42.622;25.386;2023-05-24T05:00:47;96998.00;;;15.72;97.81
9439;BME280;5176;42.622;25.386;2023-05-24T05:03:14;97000.50;;;15.83;97.32
9439;BME280;5176;42.622;25.386;2023-05-24T05:05:42;96998.88;;;15.92;96.86
9439;BME280;5176;42.622;25.386;2023-05-24T05:08:10;97002.34;;;16.02;95.63
9439;BME280;5176;42.622;25.386;2023-05-24T05:10:38;96992.75;;;16.11;90.99
9439;BME280;5176;42.622;25.386;2023-05-24T05:13:06;96992.31;;;16.25;92.16
9439;BME280;5176;42.622;25.386;2023-05-24T05:15:33;97000.28;;;16.34;93.64
9439;BME280;5176;42.622;25.386;2023-05-24T05:18:00;96999.31;;;16.45;90.76
9439;BME280;5176;42.622;25.386;2023-05-24T05:20:27;97001.53;;;16.59;89.61
9439;BME280;5176;42.622;25.386;2023-05-24T05:22:54;97007.50;;;16.71;89.61
9439;BME280;5176;42.622;25.386;2023-05-24T05:25:22;97002.22;;;16.81;90.81
9439;BME280;5176;42.622;25.386;2023-05-24T05:27:50;97006.22;;;16.85;92.33
9439;BME280;5176;42.622;25.386;2023-05-24T05:30:18;97006.06;;;16.96;91.22
9439;BME280;5176;42.622;25.386;2023-05-24T05:32:45;97007.59;;;17.08;88.98
9439;BME280;5176;42.622;25.386;2023-05-24T05:35:12;97013.19;;;17.05;87.79
9439;BME280;5176;42.622;25.386;2023-05-24T05:37:39;97010.19;;;17.18;89.79
9439;BME280;5176;42.622;25.386;2023-05-24T05:40:07;97011.84;;;17.29;90.36
9439;BME280;5176;42.622;25.386;2023-05-24T05:42:34;97015.31;;;17.29;90.53
9439;BME280;5176;42.622;25.386;2023-05-24T05:45:04;97012.66;;;17.39;92.61
9439;BME280;5176;42.622;25.386;2023-05-24T05:47:31;97014.56;;;17.47;92.09
9439;BME280;5176;42.622;25.386;2023-05-24T05:49:59;97012.69;;;17.57;92.00
9439;BME280;5176;42.622;25.386;2023-05-24T05:52:26;97017.81;;;17.68;90.98
9439;BME280;5176;42.622;25.386;2023-05-24T05:54:53;97017.81;;;17.68;92.23
9439;BME280;5176;42.622;25.386;2023-05-24T05:57:20;97022.22;;;17.87;91.64
9439;BME280;5176;42.622;25.386;2023-05-24T05:59:48;97026.31;;;17.99;88.59
9439;BME280;5176;42.622;25.386;2023-05-24T06:02:18;97018.28;;;18.09;88.20
9439;BME280;5176;42.622;25.386;2023-05-24T06:04:48;97030.75;;;18.26;86.36
9439;BME280;5176;42.622;25.386;2023-05-24T06:07:15;97030.50;;;18.37;86.79
9439;BME280;5176;42.622;25.386;2023-05-24T06:09:42;97026.50;;;18.51;85.84
9439;BME280;5176;42.622;25.386;2023-05-24T06:12:10;97015.81;;;18.61;83.20
9439;BME280;5176;42.622;25.386;2023-05-24T06:14:37;97029.78;;;18.81;83.83
9439;BME280;5176;42.622;25.386;2023-05-24T06:17:04;97026.22;;;18.98;82.03
9439;BME280;5176;42.622;25.386;2023-05-24T06:19:33;97035.31;;;19.13;77.73
9439;BME280;5176;42.622;25.386;2023-05-24T06:22:00;97030.75;;;19.31;78.72
9439;BME280;5176;42.622;25.386;2023-05-24T06:24:27;97035.34;;;19.47;76.17
9439;BME280;5176;42.622;25.386;2023-05-24T06:26:55;97031.97;;;19.63;75.84
9439;BME280;5176;42.622;25.386;2023-05-24T06:29:22;97037.38;;;19.79;77.13
9439;BME280;5176;42.622;25.386;2023-05-24T06:31:49;97032.75;;;19.98;73.77
9439;BME280;5176;42.622;25.386;2023-05-24T06:34:17;97034.66;;;20.13;72.38
9439;BME280;5176;42.622;25.386;2023-05-24T06:36:47;97031.34;;;20.28;72.57
9439;BME280;5176;42.622;25.386;2023-05-24T06:39:16;97029.09;;;20.49;72.25
9439;BME280;5176;42.622;25.386;2023-05-24T06:41:43;97031.75;;;20.65;71.19
9439;BME280;5176;42.622;25.386;2023-05-24T06:44:11;97030.94;;;20.81;70.70
9439;BME280;5176;42.622;25.386;2023-05-24T06:46:39;97028.75;;;21.01;68.13
9439;BME280;5176;42.622;25.386;2023-05-24T06:49:07;97022.91;;;21.14;68.71
9439;BME280;5176;42.622;25.386;2023-05-24T06:51:34;97026.72;;;21.28;66.67
9439;BME280;5176;42.622;25.386;2023-05-24T06:54:04;97024.53;;;21.39;64.76
9439;BME280;5176;42.622;25.386;2023-05-24T06:56:31;97017.38;;;21.48;64.10
9439;BME280;5176;42.622;25.386;2023-05-24T06:58:58;97028.28;;;21.69;63.88
9439;BME280;5176;42.622;25.386;2023-05-24T07:01:26;97029.91;;;21.79;62.54
9439;BME280;5176;42.622;25.386;2023-05-24T07:03:53;97018.34;;;21.94;60.83
9439;BME280;5176;42.622;25.386;2023-05-24T07:06:21;97024.63;;;22.10;60.46
9439;BME280;5176;42.622;25.386;2023-05-24T07:08:48;97022.41;;;22.21;60.87
9439;BME280;5176;42.622;25.386;2023-05-24T07:11:17;97015.31;;;22.37;58.52
9439;BME280;5176;42.622;25.386;2023-05-24T07:13:44;97026.69;;;22.53;57.51
9439;BME280;5176;42.622;25.386;2023-05-24T07:16:11;97021.41;;;22.68;57.61
9439;BME280;5176;42.622;25.386;2023-05-24T07:18:39;97024.78;;;22.85;57.17
9439;BME280;5176;42.622;25.386;2023-05-24T07:21:06;97022.84;;;23.02;54.81
9439;BME280;5176;42.622;25.386;2023-05-24T07:23:33;97022.47;;;23.20;55.13
9439;BME280;5176;42.622;25.386;2023-05-24T07:26:02;97018.75;;;23.29;50.62
9439;BME280;5176;42.622;25.386;2023-05-24T07:28:31;97024.63;;;23.39;50.73
9439;BME280;5176;42.622;25.386;2023-05-24T07:31:02;97022.63;;;23.56;52.88
9439;BME280;5176;42.622;25.386;2023-05-24T07:33:30;97025.13;;;23.72;52.24
9439;BME280;5176;42.622;25.386;2023-05-24T07:35:57;97024.94;;;23.88;53.00
9439;BME280;5176;42.622;25.386;2023-05-24T07:38:25;97030.00;;;23.98;52.00
9439;BME280;5176;42.622;25.386;2023-05-24T07:40:54;97034.13;;;24.01;52.58
9439;BME280;5176;42.622;25.386;2023-05-24T07:43:21;97034.53;;;23.98;51.22
9439;BME280;5176;42.622;25.386;2023-05-24T07:45:50;97030.78;;;24.13;51.99
9439;BME280;5176;42.622;25.386;2023-05-24T07:48:18;97028.00;;;24.36;52.07
9439;BME280;5176;42.622;25.386;2023-05-24T07:50:45;97031.59;;;24.43;50.07
9439;BME280;5176;42.622;25.386;2023-05-24T07:53:13;97030.31;;;24.61;49.73
9439;BME280;5176;42.622;25.386;2023-05-24T07:55:40;97028.28;;;24.84;49.47
9439;BME280;5176;42.622;25.386;2023-05-24T07:58:09;97023.78;;;24.91;48.59
9439;BME280;5176;42.622;25.386;2023-05-24T08:00:36;97027.88;;;24.87;48.72
9439;BME280;5176;42.622;25.386;2023-05-24T08:03:05;97024.97;;;24.82;47.09
9439;BME280;5176;42.622;25.386;2023-05-24T08:05:32;97024.97;;;24.82;48.14
9439;BME280;5176;42.622;25.386;2023-05-24T08:07:59;97025.84;;;24.89;48.57
9439;BME280;5176;42.622;25.386;2023-05-24T08:10:27;97027.13;;;25.15;47.96
9439;BME280;5176;42.622;25.386;2023-05-24T08:12:54;97025.69;;;25.19;48.50
9439;BME280;5176;42.622;25.386;2023-05-24T08:15:21;97029.00;;;25.21;47.15
9439;BME280;5176;42.622;25.386;2023-05-24T08:17:49;97024.53;;;25.28;46.97
9439;BME280;5176;42.622;25.386;2023-05-24T08:20:18;97027.66;;;25.32;46.16
9439;BME280;5176;42.622;25.386;2023-05-24T08:22:45;97025.50;;;25.48;44.21
9439;BME280;5176;42.622;25.386;2023-05-24T08:25:14;97025.81;;;25.67;44.17
9439;BME280;5176;42.622;25.386;2023-05-24T08:27:41;97030.06;;;25.83;42.31
9439;BME280;5176;42.622;25.386;2023-05-24T08:30:09;97018.13;;;25.92;42.50
9439;BME280;5176;42.622;25.386;2023-05-24T08:32:38;97023.34;;;26.06;42.33
9439;BME280;5176;42.622;25.386;2023-05-24T08:35:05;97012.03;;;26.18;42.66
9439;BME280;5176;42.622;25.386;2023-05-24T08:37:34;97018.03;;;26.26;40.26
9439;BME280;5176;42.622;25.386;2023-05-24T08:40:01;97017.97;;;26.06;42.02
9439;BME280;5176;42.622;25.386;2023-05-24T08:42:30;97017.59;;;26.10;41.42
9439;BME280;5176;42.622;25.386;2023-05-24T08:45:02;97015.66;;;25.97;41.34
9439;BME280;5176;42.622;25.386;2023-05-24T08:47:31;97025.00;;;26.07;41.40
9439;BME280;5176;42.622;25.386;2023-05-24T08:49:59;97012.84;;;26.18;40.70
9439;BME280;5176;42.622;25.386;2023-05-24T08:52:28;97026.13;;;26.33;41.34
9439;BME280;5176;42.622;25.386;2023-05-24T08:54:57;97025.38;;;26.59;41.49
9439;BME280;5176;42.622;25.386;2023-05-24T08:57:25;97027.88;;;26.67;39.19
9439;BME280;5176;42.622;25.386;2023-05-24T08:59:52;97033.50;;;26.85;40.17
9439;BME280;5176;42.622;25.386;2023-05-24T09:02:21;97034.53;;;26.78;39.57
9439;BME280;5176;42.622;25.386;2023-05-24T09:04:49;97024.16;;;26.55;39.59
9439;BME280;5176;42.622;25.386;2023-05-24T09:07:20;97031.66;;;26.18;39.97
9439;BME280;5176;42.622;25.386;2023-05-24T09:09:54;97024.81;;;25.40;40.70
9439;BME280;5176;42.622;25.386;2023-05-24T09:12:26;97023.84;;;24.98;41.59
9439;BME280;5176;42.622;25.386;2023-05-24T09:14:58;97033.81;;;24.25;42.75
9439;BME280;5176;42.622;25.386;2023-05-24T09:17:25;97030.88;;;24.35;42.83
9439;BME280;5176;42.622;25.386;2023-05-24T09:19:53;96977.78;;;24.24;43.21
9439;BME280;5176;42.622;25.386;2023-05-24T09:22:23;97024.88;;;24.97;42.01
9439;BME280;5176;42.622;25.386;2023-05-24T09:24:52;97030.69;;;25.22;42.11
9439;BME280;5176;42.622;25.386;2023-05-24T09:27:26;97028.97;;;25.42;41.44
9439;BME280;5176;42.622;25.386;2023-05-24T09:29:54;97028.31;;;25.68;40.02
9439;BME280;5176;42.622;25.386;2023-05-24T09:32:22;96995.34;;;25.81;39.04
9439;BME280;5176;42.622;25.386;2023-05-24T09:34:51;97027.84;;;25.99;38.41
9439;BME280;5176;42.622;25.386;2023-05-24T09:37:22;97020.47;;;26.08;38.83
9439;BME280;5176;42.622;25.386;2023-05-24T09:39:52;97018.88;;;26.33;38.65
9439;BME280;5176;42.622;25.386;2023-05-24T09:42:21;97021.28;;;26.76;38.50
9439;BME280;5176;42.622;25.386;2023-05-24T09:44:59;97022.53;;;27.00;39.55
9439;BME280;5176;42.622;25.386;2023-05-24T09:47:30;97022.53;;;26.94;40.00
9439;BME280;5176;42.622;25.386;2023-05-24T09:49:58;97023.75;;;26.65;39.90
9439;BME280;5176;42.622;25.386;2023-05-24T09:52:26;97020.97;;;26.38;40.63
9439;BME280;5176;42.622;25.386;2023-05-24T09:54:54;97028.75;;;26.20;41.56
9439;BME280;5176;42.622;25.386;2023-05-24T09:57:21;97026.91;;;26.20;41.59
9439;BME280;5176;42.622;25.386;2023-05-24T09:59:49;97029.94;;;26.58;41.19
9439;BME280;5176;42.622;25.386;2023-05-24T10:02:20;97022.75;;;26.92;40.39
9439;BME280;5176;42.622;25.386;2023-05-24T10:04:57;97025.69;;;27.24;40.20
9439;BME280;5176;42.622;25.386;2023-05-24T10:07:25;97022.13;;;27.43;38.25
9439;BME280;5176;42.622;25.386;2023-05-24T10:09:53;97019.22;;;27.58;37.48
9439;BME280;5176;42.622;25.386;2023-05-24T10:12:21;97011.94;;;27.65;38.95
9439;BME280;5176;42.622;25.386;2023-05-24T10:14:50;97028.31;;;27.57;37.10
9439;BME280;5176;42.622;25.386;2023-05-24T10:17:19;97014.25;;;27.41;37.02
9439;BME280;5176;42.622;25.386;2023-05-24T10:19:47;97021.06;;;27.71;38.10
9439;BME280;5176;42.622;25.386;2023-05-24T10:22:16;97023.72;;;27.90;37.45
9439;BME280;5176;42.622;25.386;2023-05-24T10:24:46;97011.13;;;27.58;37.92
9439;BME280;5176;42.622;25.386;2023-05-24T10:27:19;97010.94;;;27.53;38.63
9439;BME280;5176;42.622;25.386;2023-05-24T10:29:53;97006.78;;;27.57;38.13
9439;BME280;5176;42.622;25.386;2023-05-24T10:32:27;97006.56;;;27.78;39.00
9439;BME280;5176;42.622;25.386;2023-05-24T10:34:57;97011.00;;;28.04;37.82
9439;BME280;5176;42.622;25.386;2023-05-24T10:37:25;97004.81;;;28.04;37.49
9439;BME280;5176;42.622;25.386;2023-05-24T10:39:53;96997.28;;;28.12;37.13
9439;BME280;5176;42.622;25.386;2023-05-24T10:42:20;97000.16;;;28.24;36.09
9439;BME280;5176;42.622;25.386;2023-05-24T10:44:47;96992.47;;;28.21;36.92
9439;BME280;5176;42.622;25.386;2023-05-24T10:47:15;96995.72;;;28.43;37.08
9439;BME280;5176;42.622;25.386;2023-05-24T10:49:50;96988.00;;;28.46;34.04
9439;BME280;5176;42.622;25.386;2023-05-24T10:52:18;96980.25;;;28.63;35.61
9439;BME280;5176;42.622;25.386;2023-05-24T10:55:04;96979.56;;;28.68;34.73
9439;BME280;5176;42.622;25.386;2023-05-24T10:57:32;96975.31;;;28.54;33.46
9439;BME280;5176;42.622;25.386;2023-05-24T11:00:25;96978.16;;;28.65;33.78
9439;BME280;5176;42.622;25.386;2023-05-24T11:02:59;96970.28;;;28.89;33.69
9439;BME280;5176;42.622;25.386;2023-05-24T11:05:33;96972.19;;;29.13;33.53
9439;BME280;5176;42.622;25.386;2023-05-24T11:08:01;96977.28;;;29.03;33.79
9439;BME280;5176;42.622;25.386;2023-05-24T11:10:30;96974.63;;;28.96;34.71
9439;BME280;5176;42.622;25.386;2023-05-24T11:12:59;96979.97;;;29.03;34.36
9439;BME280;5176;42.622;25.386;2023-05-24T11:15:27;96971.09;;;28.96;33.52
9439;BME280;5176;42.622;25.386;2023-05-24T11:18:13;96973.34;;;28.99;34.01
9439;BME280;5176;42.622;25.386;2023-05-24T11:20:43;96971.47;;;28.99;32.90
9439;BME280;5176;42.622;25.386;2023-05-24T11:23:13;96965.56;;;28.84;32.87
9439;BME280;5176;42.622;25.386;2023-05-24T11:25:40;96956.97;;;28.69;33.76
9439;BME280;5176;42.622;25.386;2023-05-24T11:28:08;96964.47;;;28.60;36.94
9439;BME280;5176;42.622;25.386;2023-05-24T11:30:40;96974.16;;;28.68;36.85
9439;BME280;5176;42.622;25.386;2023-05-24T11:33:15;96959.22;;;28.72;36.32
9439;BME280;5176;42.622;25.386;2023-05-24T11:35:45;96967.22;;;28.54;36.05
9439;BME280;5176;42.622;25.386;2023-05-24T11:38:13;96961.31;;;28.70;36.21
9439;BME280;5176;42.622;25.386;2023-05-24T11:40:41;96935.28;;;28.57;35.26
9439;BME280;5176;42.622;25.386;2023-05-24T11:43:14;96960.44;;;28.76;35.12
9439;BME280;5176;42.622;25.386;2023-05-24T11:45:42;96952.78;;;28.73;35.51
9439;BME280;5176;42.622;25.386;2023-05-24T11:48:09;96962.69;;;28.79;35.00
9439;BME280;5176;42.622;25.386;2023-05-24T11:50:38;96943.50;;;28.69;34.68
9439;BME280;5176;42.622;25.386;2023-05-24T11:53:09;96953.19;;;28.76;36.00
9439;BME280;5176;42.622;25.386;2023-05-24T11:55:36;96949.78;;;28.81;35.51
9439;BME280;5176;42.622;25.386;2023-05-24T11:58:06;96941.38;;;28.71;35.43
9439;BME280;5176;42.622;25.386;2023-05-24T12:00:37;96941.88;;;28.86;34.47
9439;BME280;5176;42.622;25.386;2023-05-24T12:03:05;96938.59;;;28.84;34.48
9439;BME280;5176;42.622;25.386;2023-05-24T12:05:35;96936.91;;;28.58;34.56
9439;BME280;5176;42.622;25.386;2023-05-24T12:08:04;96938.44;;;28.47;35.15
9439;BME280;5176;42.622;25.386;2023-05-24T12:10:34;96934.41;;;28.32;34.87
9439;BME280;5176;42.622;25.386;2023-05-24T12:13:02;96929.41;;;28.35;35.92
9439;BME280;5176;42.622;25.386;2023-05-24T12:15:29;96935.19;;;28.39;35.21
9439;BME280;5176;42.622;25.386;2023-05-24T12:17:57;96924.69;;;28.24;34.30
9439;BME280;5176;42.622;25.386;2023-05-24T12:20:26;96923.97;;;28.42;35.20
9439;BME280;5176;42.622;25.386;2023-05-24T12:22:55;96916.00;;;28.54;34.40
9439;BME280;5176;42.622;25.386;2023-05-24T12:25:22;96922.22;;;28.54;34.42
9439;BME280;5176;42.622;25.386;2023-05-24T12:27:54;96921.75;;;28.64;33.28
9439;BME280;5176;42.622;25.386;2023-05-24T12:30:22;96919.94;;;28.83;33.91
9439;BME280;5176;42.622;25.386;2023-05-24T12:32:49;96923.31;;;29.03;33.33
9439;BME280;5176;42.622;25.386;2023-05-24T12:35:19;96930.78;;;29.01;32.77
9439;BME280;5176;42.622;25.386;2023-05-24T12:37:46;96936.38;;;28.74;32.48
9439;BME280;5176;42.622;25.386;2023-05-24T12:40:15;96945.28;;;28.50;34.67
9439;BME280;5176;42.622;25.386;2023-05-24T12:42:45;96939.94;;;28.43;40.14
9439;BME280;5176;42.622;25.386;2023-05-24T12:45:18;96937.69;;;28.34;41.21
9439;BME280;5176;42.622;25.386;2023-05-24T12:47:49;96941.50;;;28.19;41.38
9439;BME280;5176;42.622;25.386;2023-05-24T12:50:17;96944.81;;;28.15;40.87
9439;BME280;5176;42.622;25.386;2023-05-24T12:52:46;96937.97;;;27.67;42.10
9439;BME280;5176;42.622;25.386;2023-05-24T12:55:13;96934.56;;;27.34;43.74
9439;BME280;5176;42.622;25.386;2023-05-24T12:57:41;96939.78;;;26.96;45.52
9439;BME280;5176;42.622;25.386;2023-05-24T13:00:10;96941.47;;;26.70;45.74
9439;BME280;5176;42.622;25.386;2023-05-24T13:02:39;96938.50;;;26.39;45.98
9439;BME280;5176;42.622;25.386;2023-05-24T13:05:07;96942.19;;;26.24;45.34
9439;BME280;5176;42.622;25.386;2023-05-24T13:07:35;96934.31;;;26.03;45.29
9439;BME280;5176;42.622;25.386;2023-05-24T13:10:02;96933.53;;;26.22;45.03
9439;BME280;5176;42.622;25.386;2023-05-24T13:12:30;96936.69;;;26.46;45.43
9439;BME280;5176;42.622;25.386;2023-05-24T13:14:57;96932.13;;;26.46;43.06